sensor_id;sensor_type;location;lat;lon;timestamp;pressure;altitude;pressure_sealevel;temperature;humidity
5522;BME280;2783;48.730;8.006;2023-03-01T00:00:10;100916.34;;;2.14;71.10
5522;BME280;2783;48.730;8.006;2023-03-01T00:02:35;100918.94;;;2.11;71.99
5522;BME280;2783;48.730;8.006;2023-03-01T00:05:01;100930.25;;;2.08;72.25
5522;BME280;2783;48.730;8.006;2023-03-01T00:07:26;100937.16;;;2.03;73.03
5522;BME280;2783;48.730;8.006;2023-03-01T00:09:52;100930.16;;;2.02;72.64
5522;BME280;2783;48.730;8.006;2023-03-01T00:12:17;100926.69;;;2.06;72.36
5522;BME280;2783;48.730;8.006;2023-03-01T00:14:42;100926.63;;;2.00;73.18
5522;BME280;2783;48.730;8.006;2023-03-01T00:17:07;100933.56;;;1.98;72.62
5522;BME280;2783;48.730;8.006;2023-03-01T00:19:33;100933.56;;;1.98;72.36
5522;BME280;2783;48.730;8.006;2023-03-01T00:21:58;100931.81;;;1.96;72.68
5522;BME280;2783;48.730;8.006;2023-03-01T00:24:23;100925.66;;;1.95;72.25
5522;BME280;2783;48.730;8.006;2023-03-01T00:26:48;100922.13;;;1.93;73.85
5522;BME280;2783;48.730;8.006;2023-03-01T00:29:17;100923.03;;;1.95;72.81
5522;BME280;2783;48.730;8.006;2023-03-01T00:31:42;100927.38;;;1.93;73.68
5522;BME280;2783;48.730;8.006;2023-03-01T00:34:09;100923.81;;;1.90;73.41
5522;BME280;2783;48.730;8.006;2023-03-01T00:36:35;100920.22;;;1.85;74.07
5522;BME280;2783;48.730;8.006;2023-03-01T00:39:01;100920.19;;;1.82;73.93
5522;BME280;2783;48.730;8.006;2023-03-01T00:41:27;100921.97;;;1.83;73.56
5522;BME280;2783;48.730;8.006;2023-03-01T00:43:52;100922.78;;;1.80;74.01
5522;BME280;2783;48.730;8.006;2023-03-01T00:46:19;100929.84;;;1.84;73.20
5522;BME280;2783;48.730;8.006;2023-03-01T00:48:45;100919.38;;;1.84;74.14
5522;BME280;2783;48.730;8.006;2023-03-01T00:51:12;100923.66;;;1.81;72.91
5522;BME280;2783;48.730;8.006;2023-03-01T00:53:37;100914.13;;;1.84;72.91
5522;BME280;2783;48.730;8.006;2023-03-01T00:56:03;100917.63;;;1.86;73.77
5522;BME280;2783;48.730;8.006;2023-03-01T00:58:29;100922.88;;;1.86;72.70
5522;BME280;2783;48.730;8.006;2023-03-01T01:00:57;100923.75;;;1.85;73.09
5522;BME280;2783;48.730;8.006;2023-03-01T01:03:23;100916.78;;;1.87;72.63
5522;BME280;2783;48.730;8.006;2023-03-01T01:05:50;100910.63;;;1.85;73.93
5522;BME280;2783;48.730;8.006;2023-03-01T01:08:15;100913.16;;;1.79;74.24
5522;BME280;2783;48.730;8.006;2023-03-01T01:10:40;100897.41;;;1.78;73.67
5522;BME280;2783;48.730;8.006;2023-03-01T01:13:08;100896.50;;;1.77;74.16
5522;BME280;2783;48.730;8.006;2023-03-01T01:15:33;100894.75;;;1.76;74.13
5522;BME280;2783;48.730;8.006;2023-03-01T01:17:59;100896.50;;;1.77;74.17
5522;BME280;2783;48.730;8.006;2023-03-01T01:20:24;100896.53;;;1.79;73.24
5522;BME280;2783;48.730;8.006;2023-03-01T01:22:49;100900.03;;;1.79;73.44
5522;BME280;2783;48.730;8.006;2023-03-01T01:25:16;100895.66;;;1.80;73.33
5522;BME280;2783;48.730;8.006;2023-03-01T01:27:41;100900.88;;;1.78;73.37
5522;BME280;2783;48.730;8.006;2023-03-01T01:30:07;100900.03;;;1.79;74.33
5522;BME280;2783;48.730;8.006;2023-03-01T01:32:32;100895.66;;;1.80;74.03
5522;BME280;2783;48.730;8.006;2023-03-01T01:34:57;100883.47;;;1.82;73.90
5522;BME280;2783;48.730;8.006;2023-03-01T01:37:23;100878.13;;;1.76;73.99
5522;BME280;2783;48.730;8.006;2023-03-01T01:39:56;100880.78;;;1.77;73.70
5522;BME280;2783;48.730;8.006;2023-03-01T01:42:21;100887.72;;;1.75;74.48
5522;BME280;2783;48.730;8.006;2023-03-01T01:44:46;100894.75;;;1.76;73.73
5522;BME280;2783;48.730;8.006;2023-03-01T01:47:13;100884.16;;;1.70;75.07
5522;BME280;2783;48.730;8.006;2023-03-01T01:49:47;100881.47;;;1.67;75.01
5522;BME280;2783;48.730;8.006;2023-03-01T01:52:35;100885.03;;;1.71;74.17
5522;BME280;2783;48.730;8.006;2023-03-01T01:55:06;100890.22;;;1.68;74.66
5522;BME280;2783;48.730;8.006;2023-03-01T01:57:37;100877.88;;;1.61;75.88
5522;BME280;2783;48.730;8.006;2023-03-01T02:00:05;100877.94;;;1.65;75.49
5522;BME280;2783;48.730;8.006;2023-03-01T02:02:32;100871.78;;;1.63;74.77
5522;BME280;2783;48.730;8.006;2023-03-01T02:05:01;100865.59;;;1.58;75.80
5522;BME280;2783;48.730;8.006;2023-03-01T02:07:28;100871.66;;;1.56;75.12
5522;BME280;2783;48.730;8.006;2023-03-01T02:09:54;100869.09;;;1.59;75.84
5522;BME280;2783;48.730;8.006;2023-03-01T02:12:21;100868.97;;;1.51;75.72
5522;BME280;2783;48.730;8.006;2023-03-01T02:14:48;100867.19;;;1.50;75.89
5522;BME280;2783;48.730;8.006;2023-03-01T02:17:13;100864.56;;;1.50;76.45
5522;BME280;2783;48.730;8.006;2023-03-01T02:19:43;100854.91;;;1.46;76.82
5522;BME280;2783;48.730;8.006;2023-03-01T02:22:17;100850.50;;;1.45;76.19
5522;BME280;2783;48.730;8.006;2023-03-01T02:27:21;100855.81;;;1.48;76.10
5522;BME280;2783;48.730;8.006;2023-03-01T02:29:49;100855.75;;;1.45;76.30
5522;BME280;2783;48.730;8.006;2023-03-01T02:32:15;100855.72;;;1.44;76.67
5522;BME280;2783;48.730;8.006;2023-03-01T02:34:41;100849.53;;;1.40;77.15
5522;BME280;2783;48.730;8.006;2023-03-01T02:37:16;100850.41;;;1.39;77.04
5522;BME280;2783;48.730;8.006;2023-03-01T02:39:48;100846.88;;;1.37;76.92
5522;BME280;2783;48.730;8.006;2023-03-01T02:42:22;100839.88;;;1.36;76.53
5522;BME280;2783;48.730;8.006;2023-03-01T02:44:49;100850.31;;;1.33;77.70
5522;BME280;2783;48.730;8.006;2023-03-01T02:47:14;100845.06;;;1.33;77.45
5522;BME280;2783;48.730;8.006;2023-03-01T02:49:40;100829.31;;;1.30;78.36
5522;BME280;2783;48.730;8.006;2023-03-01T02:55:00;100828.31;;;1.23;78.14
5522;BME280;2783;48.730;8.006;2023-03-01T02:57:25;100830.00;;;1.21;78.91
5522;BME280;2783;48.730;8.006;2023-03-01T02:59:52;100813.34;;;1.16;79.24
5522;BME280;2783;48.730;8.006;2023-03-01T03:05:01;100812.50;;;1.19;79.59
5522;BME280;2783;48.730;8.006;2023-03-01T03:07:26;100820.41;;;1.22;79.46
5522;BME280;2783;48.730;8.006;2023-03-01T03:09:52;100808.13;;;1.18;79.49
5522;BME280;2783;48.730;8.006;2023-03-01T03:12:17;100809.81;;;1.16;79.68
5522;BME280;2783;48.730;8.006;2023-03-01T03:14:42;100806.38;;;1.17;79.67
5522;BME280;2783;48.730;8.006;2023-03-01T03:17:08;100804.53;;;1.13;79.98
5522;BME280;2783;48.730;8.006;2023-03-01T03:19:33;100804.53;;;1.13;79.92
5522;BME280;2783;48.730;8.006;2023-03-01T03:21:58;100804.47;;;1.10;79.57
5522;BME280;2783;48.730;8.006;2023-03-01T03:24:24;100800.06;;;1.07;80.62
5522;BME280;2783;48.730;8.006;2023-03-01T03:26:49;100792.19;;;1.06;80.71
5522;BME280;2783;48.730;8.006;2023-03-01T03:29:14;100808.75;;;1.05;80.47
5522;BME280;2783;48.730;8.006;2023-03-01T03:31:40;100798.31;;;1.08;79.69
5522;BME280;2783;48.730;8.006;2023-03-01T03:34:05;100793.16;;;1.12;80.02
5522;BME280;2783;48.730;8.006;2023-03-01T03:36:30;100781.69;;;1.06;79.76
5522;BME280;2783;48.730;8.006;2023-03-01T03:38:55;100783.53;;;1.10;80.52
5522;BME280;2783;48.730;8.006;2023-03-01T03:41:21;100785.22;;;1.08;80.22
5522;BME280;2783;48.730;8.006;2023-03-01T03:43:46;100781.69;;;1.06;80.82
5522;BME280;2783;48.730;8.006;2023-03-01T03:46:11;100786.13;;;1.08;80.73
5522;BME280;2783;48.730;8.006;2023-03-01T03:48:41;100786.97;;;1.09;79.86
5522;BME280;2783;48.730;8.006;2023-03-01T03:51:09;100785.28;;;1.11;80.85
5522;BME280;2783;48.730;8.006;2023-03-01T03:53:35;100780.03;;;1.11;80.76
5522;BME280;2783;48.730;8.006;2023-03-01T03:56:00;100779.06;;;1.06;80.22
5522;BME280;2783;48.730;8.006;2023-03-01T03:58:25;100778.25;;;1.07;79.78
5522;BME280;2783;48.730;8.006;2023-03-01T04:00:51;100773.00;;;1.07;80.10
5522;BME280;2783;48.730;8.006;2023-03-01T04:03:18;100773.81;;;1.04;80.57
5522;BME280;2783;48.730;8.006;2023-03-01T04:05:44;100774.72;;;1.05;80.65
5522;BME280;2783;48.730;8.006;2023-03-01T04:08:09;100771.16;;;1.03;80.40
5522;BME280;2783;48.730;8.006;2023-03-01T04:10:39;100772.88;;;1.01;80.06
5522;BME280;2783;48.730;8.006;2023-03-01T04:13:05;100759.75;;;0.99;80.09
5522;BME280;2783;48.730;8.006;2023-03-01T04:15:31;100771.13;;;1.00;80.75
5522;BME280;2783;48.730;8.006;2023-03-01T04:17:58;100764.19;;;1.02;80.41
5522;BME280;2783;48.730;8.006;2023-03-01T04:20:24;100768.53;;;1.01;80.31
5522;BME280;2783;48.730;8.006;2023-03-01T04:23:12;100761.56;;;1.02;80.18
5522;BME280;2783;48.730;8.006;2023-03-01T04:25:52;100760.66;;;1.00;80.20
5522;BME280;2783;48.730;8.006;2023-03-01T04:30:52;100766.63;;;0.93;81.40
5522;BME280;2783;48.730;8.006;2023-03-01T04:33:18;100764.03;;;0.94;81.57
5522;BME280;2783;48.730;8.006;2023-03-01T04:35:44;100757.88;;;0.92;81.74
5522;BME280;2783;48.730;8.006;2023-03-01T04:38:09;100758.81;;;0.96;80.85
5522;BME280;2783;48.730;8.006;2023-03-01T04:40:35;100757.03;;;0.92;81.01
5522;BME280;2783;48.730;8.006;2023-03-01T04:43:00;100759.69;;;0.95;81.31
5522;BME280;2783;48.730;8.006;2023-03-01T04:45:26;100757.84;;;0.91;80.46
5522;BME280;2783;48.730;8.006;2023-03-01T04:47:52;100747.25;;;0.83;81.27
5522;BME280;2783;48.730;8.006;2023-03-01T04:50:18;100749.81;;;0.79;82.37
5522;BME280;2783;48.730;8.006;2023-03-01T04:52:45;100746.28;;;0.78;82.87
5522;BME280;2783;48.730;8.006;2023-03-01T04:55:11;100754.94;;;0.76;83.11
5522;BME280;2783;48.730;8.006;2023-03-01T04:57:36;100748.88;;;0.75;82.45
5522;BME280;2783;48.730;8.006;2023-03-01T05:00:03;100742.72;;;0.75;82.47
5522;BME280;2783;48.730;8.006;2023-03-01T05:02:45;100752.34;;;0.76;83.40
5522;BME280;2783;48.730;8.006;2023-03-01T05:05:10;100751.50;;;0.77;83.07
5522;BME280;2783;48.730;8.006;2023-03-01T05:07:35;100754.06;;;0.74;82.41
5522;BME280;2783;48.730;8.006;2023-03-01T05:10:00;100764.56;;;0.75;83.04
5522;BME280;2783;48.730;8.006;2023-03-01T05:12:26;100763.72;;;0.78;83.70
5522;BME280;2783;48.730;8.006;2023-03-01T05:14:51;100749.81;;;0.79;82.98
5522;BME280;2783;48.730;8.006;2023-03-01T05:17:16;100755.91;;;0.81;83.37
5522;BME280;2783;48.730;8.006;2023-03-01T05:19:41;100755.03;;;0.79;83.34
5522;BME280;2783;48.730;8.006;2023-03-01T05:22:07;100752.47;;;0.82;82.86
5522;BME280;2783;48.730;8.006;2023-03-01T05:24:33;100742.91;;;0.84;83.05
5522;BME280;2783;48.730;8.006;2023-03-01T05:26:59;100746.41;;;0.86;82.74
5522;BME280;2783;48.730;8.006;2023-03-01T05:29:26;100753.31;;;0.81;83.75
5522;BME280;2783;48.730;8.006;2023-03-01T05:31:52;100749.81;;;0.79;83.14
5522;BME280;2783;48.730;8.006;2023-03-01T05:34:18;100758.50;;;0.78;83.36
5522;BME280;2783;48.730;8.006;2023-03-01T05:36:44;100759.38;;;0.78;83.36
5522;BME280;2783;48.730;8.006;2023-03-01T05:39:09;100756.78;;;0.80;84.24
5522;BME280;2783;48.730;8.006;2023-03-01T05:41:34;100750.75;;;0.82;83.90
5522;BME280;2783;48.730;8.006;2023-03-01T05:44:00;100746.31;;;0.80;83.46
5522;BME280;2783;48.730;8.006;2023-03-01T05:46:25;100757.72;;;0.82;84.17
5522;BME280;2783;48.730;8.006;2023-03-01T05:48:50;100751.44;;;0.74;84.20
5522;BME280;2783;48.730;8.006;2023-03-01T05:51:15;100753.16;;;0.72;84.81
5522;BME280;2783;48.730;8.006;2023-03-01T05:53:41;100755.78;;;0.73;84.97
5522;BME280;2783;48.730;8.006;2023-03-01T05:56:06;100752.28;;;0.73;84.35
5522;BME280;2783;48.730;8.006;2023-03-01T05:58:32;100743.59;;;0.74;84.13
5522;BME280;2783;48.730;8.006;2023-03-01T06:00:57;100741.78;;;0.71;83.70
5522;BME280;2783;48.730;8.006;2023-03-01T06:03:22;100741.78;;;0.71;84.02
5522;BME280;2783;48.730;8.006;2023-03-01T06:05:48;100758.38;;;0.72;83.68
5522;BME280;2783;48.730;8.006;2023-03-01T06:08:13;100760.03;;;0.67;84.08
5522;BME280;2783;48.730;8.006;2023-03-01T06:10:38;100758.44;;;0.75;83.81
5522;BME280;2783;48.730;8.006;2023-03-01T06:13:04;100764.56;;;0.75;82.74
5522;BME280;2783;48.730;8.006;2023-03-01T06:15:29;100756.72;;;0.75;83.79
5522;BME280;2783;48.730;8.006;2023-03-01T06:17:55;100759.28;;;0.72;83.31
5522;BME280;2783;48.730;8.006;2023-03-01T06:20:23;100756.63;;;0.71;83.49
5522;BME280;2783;48.730;8.006;2023-03-01T06:22:48;100756.69;;;0.74;83.91
5522;BME280;2783;48.730;8.006;2023-03-01T06:25:15;100762.91;;;0.79;83.93
5522;BME280;2783;48.730;8.006;2023-03-01T06:27:41;100749.81;;;0.79;83.15
5522;BME280;2783;48.730;8.006;2023-03-01T06:30:07;100756.91;;;0.87;83.39
5522;BME280;2783;48.730;8.006;2023-03-01T06:32:33;100749.06;;;0.87;82.80
5522;BME280;2783;48.730;8.006;2023-03-01T06:34:58;100754.41;;;0.92;83.12
5522;BME280;2783;48.730;8.006;2023-03-01T06:37:24;100755.34;;;0.95;83.79
5522;BME280;2783;48.730;8.006;2023-03-01T06:39:50;100746.69;;;1.01;82.77
5522;BME280;2783;48.730;8.006;2023-03-01T06:42:15;100739.69;;;1.00;82.50
5522;BME280;2783;48.730;8.006;2023-03-01T06:44:40;100747.63;;;1.04;82.76
5522;BME280;2783;48.730;8.006;2023-03-01T06:47:05;100739.84;;;1.10;82.25
5522;BME280;2783;48.730;8.006;2023-03-01T06:49:31;100736.50;;;1.17;82.25
5522;BME280;2783;48.730;8.006;2023-03-01T06:51:56;100744.56;;;1.29;81.65
5522;BME280;2783;48.730;8.006;2023-03-01T06:54:22;100743.72;;;1.32;81.51
5522;BME280;2783;48.730;8.006;2023-03-01T06:56:47;100737.69;;;1.36;80.73
5522;BME280;2783;48.730;8.006;2023-03-01T06:59:13;100730.78;;;1.43;80.64
5522;BME280;2783;48.730;8.006;2023-03-01T07:01:38;100730.00;;;1.48;80.17
5522;BME280;2783;48.730;8.006;2023-03-01T07:04:04;100721.34;;;1.55;80.03
5522;BME280;2783;48.730;8.006;2023-03-01T07:06:29;100728.50;;;1.65;79.71
5522;BME280;2783;48.730;8.006;2023-03-01T07:08:55;100714.59;;;1.69;80.07
5522;BME280;2783;48.730;8.006;2023-03-01T07:11:20;100721.75;;;1.82;79.35
5522;BME280;2783;48.730;8.006;2023-03-01T07:13:45;100729.09;;;2.07;79.72
5522;BME280;2783;48.730;8.006;2023-03-01T07:16:10;100721.44;;;3.09;81.06
5522;BME280;2783;48.730;8.006;2023-03-01T07:18:36;100705.66;;;5.01;71.54
5522;BME280;2783;48.730;8.006;2023-03-01T07:21:05;100708.00;;;6.43;59.38
5522;BME280;2783;48.730;8.006;2023-03-01T07:23:31;100700.38;;;7.29;55.07
5522;BME280;2783;48.730;8.006;2023-03-01T07:25:56;100702.56;;;7.77;52.71
5522;BME280;2783;48.730;8.006;2023-03-01T07:28:24;100701.06;;;8.33;50.89
5522;BME280;2783;48.730;8.006;2023-03-01T07:30:49;100697.50;;;8.97;49.50
5522;BME280;2783;48.730;8.006;2023-03-01T07:33:15;100688.03;;;8.80;48.27
5522;BME280;2783;48.730;8.006;2023-03-01T07:35:40;100694.44;;;8.65;47.70
5522;BME280;2783;48.730;8.006;2023-03-01T07:38:05;100699.56;;;7.21;50.06
5522;BME280;2783;48.730;8.006;2023-03-01T07:40:31;100697.31;;;6.64;53.45
5522;BME280;2783;48.730;8.006;2023-03-01T07:42:57;100701.41;;;7.13;52.52
5522;BME280;2783;48.730;8.006;2023-03-01T07:45:23;100705.38;;;7.62;51.30
5522;BME280;2783;48.730;8.006;2023-03-01T07:47:49;100699.00;;;6.80;52.56
5522;BME280;2783;48.730;8.006;2023-03-01T07:50:15;100705.03;;;7.92;51.01
5522;BME280;2783;48.730;8.006;2023-03-01T07:52:40;100690.03;;;9.22;49.16
5522;BME280;2783;48.730;8.006;2023-03-01T07:55:05;100693.03;;;10.44;44.61
5522;BME280;2783;48.730;8.006;2023-03-01T07:57:31;100694.59;;;10.94;43.42
5522;BME280;2783;48.730;8.006;2023-03-01T07:59:56;100696.13;;;10.24;43.12
5522;BME280;2783;48.730;8.006;2023-03-01T08:02:21;100693.66;;;9.15;45.83
5522;BME280;2783;48.730;8.006;2023-03-01T08:04:47;100697.31;;;8.49;46.95
5522;BME280;2783;48.730;8.006;2023-03-01T08:07:12;100687.69;;;7.64;49.00
5522;BME280;2783;48.730;8.006;2023-03-01T08:09:37;100686.69;;;6.73;51.72
5522;BME280;2783;48.730;8.006;2023-03-01T08:12:03;100689.59;;;6.26;53.62
5522;BME280;2783;48.730;8.006;2023-03-01T08:14:29;100693.00;;;6.48;55.48
5522;BME280;2783;48.730;8.006;2023-03-01T08:16:54;100681.19;;;7.00;53.38
5522;BME280;2783;48.730;8.006;2023-03-01T08:19:20;100687.13;;;7.31;54.55
5522;BME280;2783;48.730;8.006;2023-03-01T08:21:45;100682.25;;;7.76;51.59
5522;BME280;2783;48.730;8.006;2023-03-01T08:24:11;100689.66;;;7.44;51.55
5522;BME280;2783;48.730;8.006;2023-03-01T08:26:36;100677.56;;;7.16;51.21
5522;BME280;2783;48.730;8.006;2023-03-01T08:29:02;100679.22;;;7.29;51.21
5522;BME280;2783;48.730;8.006;2023-03-01T08:31:32;100680.28;;;7.95;50.41
5522;BME280;2783;48.730;8.006;2023-03-01T08:34:00;100674.78;;;9.33;48.75
5522;BME280;2783;48.730;8.006;2023-03-01T08:36:27;100659.88;;;10.19;46.67
5522;BME280;2783;48.730;8.006;2023-03-01T08:38:53;100665.66;;;11.14;44.36
5522;BME280;2783;48.730;8.006;2023-03-01T08:41:22;100666.25;;;11.60;42.88
5522;BME280;2783;48.730;8.006;2023-03-01T08:43:47;100662.00;;;11.86;41.75
5522;BME280;2783;48.730;8.006;2023-03-01T08:46:13;100663.47;;;11.66;40.58
5522;BME280;2783;48.730;8.006;2023-03-01T08:48:38;100664.25;;;12.02;41.06
5522;BME280;2783;48.730;8.006;2023-03-01T08:51:07;100656.81;;;12.43;40.80
5522;BME280;2783;48.730;8.006;2023-03-01T08:53:33;100656.47;;;13.10;40.53
5522;BME280;2783;48.730;8.006;2023-03-01T08:56:01;100649.81;;;12.39;39.21
5522;BME280;2783;48.730;8.006;2023-03-01T08:58:29;100650.28;;;12.53;39.22
5522;BME280;2783;48.730;8.006;2023-03-01T09:00:55;100651.28;;;12.77;39.70
5522;BME280;2783;48.730;8.006;2023-03-01T09:03:21;100648.03;;;12.67;39.98
5522;BME280;2783;48.730;8.006;2023-03-01T09:05:47;100635.16;;;13.35;39.40
5522;BME280;2783;48.730;8.006;2023-03-01T09:08:14;100629.25;;;12.70;39.26
5522;BME280;2783;48.730;8.006;2023-03-01T09:10:39;100635.25;;;13.58;39.66
5522;BME280;2783;48.730;8.006;2023-03-01T09:13:04;100636.28;;;13.02;37.95
5522;BME280;2783;48.730;8.006;2023-03-01T09:15:30;100624.38;;;12.84;39.44
5522;BME280;2783;48.730;8.006;2023-03-01T09:17:55;100627.81;;;12.31;39.20
5522;BME280;2783;48.730;8.006;2023-03-01T09:20:20;100622.25;;;12.10;40.95
5522;BME280;2783;48.730;8.006;2023-03-01T09:22:46;100617.66;;;12.15;40.11
5522;BME280;2783;48.730;8.006;2023-03-01T09:25:11;100615.69;;;12.50;41.37
5522;BME280;2783;48.730;8.006;2023-03-01T09:27:36;100614.97;;;12.73;40.71
5522;BME280;2783;48.730;8.006;2023-03-01T09:30:02;100609.56;;;12.47;40.23
5522;BME280;2783;48.730;8.006;2023-03-01T09:32:29;100620.59;;;12.35;40.78
5522;BME280;2783;48.730;8.006;2023-03-01T09:34:54;100612.91;;;12.53;40.45
5522;BME280;2783;48.730;8.006;2023-03-01T09:37:26;100600.69;;;13.01;39.54
5522;BME280;2783;48.730;8.006;2023-03-01T09:39:51;100606.25;;;12.94;39.27
5522;BME280;2783;48.730;8.006;2023-03-01T09:42:16;100605.16;;;12.73;40.57
5522;BME280;2783;48.730;8.006;2023-03-01T09:44:50;100598.97;;;12.99;39.37
5522;BME280;2783;48.730;8.006;2023-03-01T09:47:20;100594.03;;;13.14;39.21
5522;BME280;2783;48.730;8.006;2023-03-01T09:49:57;100590.09;;;13.24;38.53
5522;BME280;2783;48.730;8.006;2023-03-01T09:52:29;100589.34;;;13.21;38.84
5522;BME280;2783;48.730;8.006;2023-03-01T09:54:57;100585.53;;;13.28;39.88
5522;BME280;2783;48.730;8.006;2023-03-01T10:09:42;100569.34;;;13.82;39.23
5522;BME280;2783;48.730;8.006;2023-03-01T10:12:25;100584.22;;;14.12;38.21
5522;BME280;2783;48.730;8.006;2023-03-01T10:14:53;100576.44;;;14.06;37.89
5522;BME280;2783;48.730;8.006;2023-03-01T10:17:36;100573.78;;;14.29;37.61
5522;BME280;2783;48.730;8.006;2023-03-01T10:20:15;100573.69;;;14.07;37.25
5522;BME280;2783;48.730;8.006;2023-03-01T10:22:41;100557.69;;;13.83;37.05
5522;BME280;2783;48.730;8.006;2023-03-01T10:25:08;100567.13;;;13.45;38.90
5522;BME280;2783;48.730;8.006;2023-03-01T10:30:32;100560.13;;;14.12;38.12
5522;BME280;2783;48.730;8.006;2023-03-01T10:32:59;100560.38;;;14.52;38.07
5522;BME280;2783;48.730;8.006;2023-03-01T10:35:25;100556.00;;;14.71;37.34
5522;BME280;2783;48.730;8.006;2023-03-01T10:40:23;100544.19;;;14.77;36.67
5522;BME280;2783;48.730;8.006;2023-03-01T10:42:48;100545.19;;;14.74;35.74
5522;BME280;2783;48.730;8.006;2023-03-01T10:45:34;100540.19;;;14.43;37.19
5522;BME280;2783;48.730;8.006;2023-03-01T10:48:14;100539.94;;;14.05;38.88
5522;BME280;2783;48.730;8.006;2023-03-01T10:50:43;100539.09;;;14.49;37.18
5522;BME280;2783;48.730;8.006;2023-03-01T10:53:28;100536.09;;;14.57;37.44
5522;BME280;2783;48.730;8.006;2023-03-01T10:55:57;100532.97;;;14.89;37.29
5522;BME280;2783;48.730;8.006;2023-03-01T10:58:23;100535.09;;;14.59;37.50
5522;BME280;2783;48.730;8.006;2023-03-01T11:01:02;100528.69;;;15.05;36.65
5522;BME280;2783;48.730;8.006;2023-03-01T11:03:29;100520.47;;;15.29;35.62
5522;BME280;2783;48.730;8.006;2023-03-01T11:08:34;100513.47;;;14.85;35.62
5522;BME280;2783;48.730;8.006;2023-03-01T11:11:07;100516.66;;;14.73;35.94
5522;BME280;2783;48.730;8.006;2023-03-01T11:13:38;100510.09;;;15.22;35.76
5522;BME280;2783;48.730;8.006;2023-03-01T11:16:11;100512.44;;;15.29;34.95
5522;BME280;2783;48.730;8.006;2023-03-01T11:18:37;100496.59;;;15.45;36.43
5522;BME280;2783;48.730;8.006;2023-03-01T11:21:02;100498.75;;;15.55;36.69
5522;BME280;2783;48.730;8.006;2023-03-01T11:23:29;100491.81;;;15.51;37.48
5522;BME280;2783;48.730;8.006;2023-03-01T11:25:57;100486.63;;;16.23;35.70
5522;BME280;2783;48.730;8.006;2023-03-01T11:28:23;100488.25;;;15.90;34.71
5522;BME280;2783;48.730;8.006;2023-03-01T11:33:20;100475.63;;;15.33;36.50
5522;BME280;2783;48.730;8.006;2023-03-01T11:35:53;100465.28;;;15.25;36.07
5522;BME280;2783;48.730;8.006;2023-03-01T11:38:22;100471.34;;;15.49;35.73
5522;BME280;2783;48.730;8.006;2023-03-01T11:40:49;100459.34;;;15.57;35.82
5522;BME280;2783;48.730;8.006;2023-03-01T11:51:23;100446.59;;;16.00;34.97
5522;BME280;2783;48.730;8.006;2023-03-01T11:59:24;100429.50;;;16.21;35.17
5522;BME280;2783;48.730;8.006;2023-03-01T12:07:09;100427.06;;;16.15;35.25
5522;BME280;2783;48.730;8.006;2023-03-01T12:12:11;100422.25;;;15.86;36.37
5522;BME280;2783;48.730;8.006;2023-03-01T12:25:08;100414.63;;;15.76;34.41
5522;BME280;2783;48.730;8.006;2023-03-01T12:32:49;100393.16;;;16.14;35.02
5522;BME280;2783;48.730;8.006;2023-03-01T12:48:46;100375.50;;;15.72;34.05
5522;BME280;2783;48.730;8.006;2023-03-01T12:51:14;100370.28;;;15.51;34.73
5522;BME280;2783;48.730;8.006;2023-03-01T12:53:45;100365.00;;;15.49;34.47
5522;BME280;2783;48.730;8.006;2023-03-01T12:56:13;100354.28;;;15.49;35.55
5522;BME280;2783;48.730;8.006;2023-03-01T13:03:52;100343.91;;;15.60;34.66
5522;BME280;2783;48.730;8.006;2023-03-01T13:06:25;100345.41;;;15.85;35.52
5522;BME280;2783;48.730;8.006;2023-03-01T13:11:22;100352.25;;;16.09;35.28
5522;BME280;2783;48.730;8.006;2023-03-01T13:13:48;100345.44;;;15.66;34.60
5522;BME280;2783;48.730;8.006;2023-03-01T13:18:45;100335.38;;;15.88;35.49
5522;BME280;2783;48.730;8.006;2023-03-01T13:21:10;100335.34;;;15.71;34.54
5522;BME280;2783;48.730;8.006;2023-03-01T13:23:37;100337.69;;;15.96;34.65
5522;BME280;2783;48.730;8.006;2023-03-01T13:26:05;100337.94;;;16.61;35.36
5522;BME280;2783;48.730;8.006;2023-03-01T13:30:56;100320.84;;;16.45;33.59
5522;BME280;2783;48.730;8.006;2023-03-01T13:35:56;100324.06;;;16.34;35.46
5522;BME280;2783;48.730;8.006;2023-03-01T13:41:06;100306.63;;;16.09;34.38
5522;BME280;2783;48.730;8.006;2023-03-01T13:43:35;100307.53;;;15.91;34.22
5522;BME280;2783;48.730;8.006;2023-03-01T13:46:02;100310.00;;;15.95;35.16
5522;BME280;2783;48.730;8.006;2023-03-01T13:48:32;100307.47;;;15.56;35.14
5522;BME280;2783;48.730;8.006;2023-03-01T13:51:02;100305.09;;;15.86;35.59
5522;BME280;2783;48.730;8.006;2023-03-01T13:53:29;100302.69;;;15.63;35.73
5522;BME280;2783;48.730;8.006;2023-03-01T13:56:33;100306.38;;;15.96;34.72
5522;BME280;2783;48.730;8.006;2023-03-01T14:01:32;100298.47;;;15.57;35.50
5522;BME280;2783;48.730;8.006;2023-03-01T14:03:58;100302.22;;;15.16;35.88
5522;BME280;2783;48.730;8.006;2023-03-01T14:06:30;100298.59;;;14.99;35.51
5522;BME280;2783;48.730;8.006;2023-03-01T14:09:15;100292.63;;;14.92;37.43
5522;BME280;2783;48.730;8.006;2023-03-01T14:19:07;100290.81;;;14.34;37.50
5522;BME280;2783;48.730;8.006;2023-03-01T14:21:37;100305.44;;;14.04;38.60
5522;BME280;2783;48.730;8.006;2023-03-01T14:24:03;100307.78;;;13.48;38.31
5522;BME280;2783;48.730;8.006;2023-03-01T14:26:28;100311.25;;;13.05;39.76
5522;BME280;2783;48.730;8.006;2023-03-01T14:28:56;100305.72;;;12.62;39.87
5522;BME280;2783;48.730;8.006;2023-03-01T14:33:55;100289.69;;;12.13;42.09
5522;BME280;2783;48.730;8.006;2023-03-01T14:36:25;100290.66;;;11.86;41.74
5522;BME280;2783;48.730;8.006;2023-03-01T14:38:51;100290.50;;;11.63;42.94
5522;BME280;2783;48.730;8.006;2023-03-01T14:43:44;100287.31;;;11.24;43.03
5522;BME280;2783;48.730;8.006;2023-03-01T14:46:25;100288.13;;;11.26;43.38
5522;BME280;2783;48.730;8.006;2023-03-01T14:48:53;100294.44;;;10.95;44.39
5522;BME280;2783;48.730;8.006;2023-03-01T14:51:19;100296.44;;;10.87;44.00
5522;BME280;2783;48.730;8.006;2023-03-01T14:53:45;100280.09;;;10.70;43.65
5522;BME280;2783;48.730;8.006;2023-03-01T14:56:14;100288.16;;;10.67;44.23
5522;BME280;2783;48.730;8.006;2023-03-01T14:58:42;100296.84;;;10.42;44.63
5522;BME280;2783;48.730;8.006;2023-03-01T15:01:10;100297.16;;;10.30;44.62
5522;BME280;2783;48.730;8.006;2023-03-01T15:03:42;100305.13;;;10.30;44.95
5522;BME280;2783;48.730;8.006;2023-03-01T15:06:09;100312.22;;;10.30;44.64
5522;BME280;2783;48.730;8.006;2023-03-01T15:08:36;100321.25;;;10.24;45.37
5522;BME280;2783;48.730;8.006;2023-03-01T15:11:28;100310.69;;;10.23;45.09
5522;BME280;2783;48.730;8.006;2023-03-01T15:13:51;100311.53;;;10.23;45.30